Time;durP1;ratioP1;P1;durP2;ratioP2;P2;SDS_P1;SDS_P2;PMS_P1;PMS_P2;Temp;Humidity;BMP_temperature;BMP_pressure;BME280_temperature;BME280_humidity;BME280_pressure;Samples;Min_cycle;Max_cycle;Signal;HPM_P1;HPM_P2
2021/12/07 00:02:01;;;;;;;7.93;5.00;;;;;;;0.73;95.41;96143.94;4981935;28;20038;-63
2021/12/07 00:04:27;;;;;;;8.02;5.03;;;;;;;0.94;93.25;96142.22;4968142;28;20046;-62
2021/12/07 00:06:53;;;;;;;7.95;5.03;;;;;;;0.81;94.16;96147.75;4972862;28;20060;-62
2021/12/07 00:09:18;;;;;;;9.40;4.75;;;;;;;0.66;95.97;96143.63;4966374;28;20081;-61
2021/12/07 00:11:46;;;;;;;6.80;4.78;;;;;;;0.58;97.71;96147.91;4965878;28;20053;-61
2021/12/07 00:14:13;;;;;;;8.30;5.32;;;;;;;0.55;96.66;96146.63;4961630;28;20050;-61
2021/12/07 00:16:44;;;;;;;8.40;4.88;;;;;;;0.50;97.73;96154.84;4966916;28;20496;-61
2021/12/07 00:19:10;;;;;;;8.10;4.63;;;;;;;0.47;97.56;96155.50;4965627;28;20125;-62
2021/12/07 00:21:36;;;;;;;7.65;5.10;;;;;;;0.60;97.54;96150.28;4972130;28;20039;-61
2021/12/07 00:24:02;;;;;;;7.43;4.95;;;;;;;0.65;97.17;96160.91;4973799;28;20045;-62
2021/12/07 00:26:28;;;;;;;9.23;4.72;;;;;;;0.73;97.10;96155.50;4970948;28;20549;-61
2021/12/07 00:28:55;;;;;;;7.72;4.53;;;;;;;0.65;97.17;96158.19;4985619;28;20047;-61
2021/12/07 00:31:28;;;;;;;8.50;4.80;;;;;;;0.75;95.96;96152.50;4959264;28;20400;-63
2021/12/07 00:34:11;;;;;;;6.13;4.35;;;;;;;0.85;95.29;96156.81;4966882;28;20542;-61
2021/12/07 00:36:44;;;;;;;6.03;4.40;;;;;;;0.96;94.20;96152.69;4967086;28;20043;-58
2021/12/07 00:39:10;;;;;;;9.95;4.82;;;;;;;1.03;93.62;96150.31;4961601;28;20034;-60
2021/12/07 00:41:36;;;;;;;5.90;4.07;;;;;;;1.01;93.22;96147.13;4970800;28;20097;-61
2021/12/07 00:44:02;;;;;;;7.75;4.82;;;;;;;1.13;91.51;96152.69;4972425;28;20039;-59
2021/12/07 00:46:29;;;;;;;7.03;4.63;;;;;;;1.07;93.31;96142.38;4965455;28;20077;-57
2021/12/07 00:48:54;;;;;;;8.05;4.65;;;;;;;1.09;92.58;96145.53;4969474;28;20046;-57
2021/12/07 00:51:20;;;;;;;5.82;3.97;;;;;;;0.97;92.84;96139.97;4954309;28;20129;-59
2021/12/07 00:53:45;;;;;;;6.10;3.80;;;;;;;0.99;93.09;96140.44;4962493;28;20508;-57
2021/12/07 00:56:11;;;;;;;6.68;4.03;;;;;;;1.04;92.74;96143.78;4953736;28;20131;-61
2021/12/07 00:58:37;;;;;;;6.45;3.97;;;;;;;1.00;92.05;96142.06;4961904;28;20034;-59
2021/12/07 01:01:09;;;;;;;6.10;3.78;;;;;;;0.93;93.56;96150.59;4958405;28;20101;-62
2021/12/07 01:03:35;;;;;;;5.70;3.63;;;;;;;0.91;95.85;96150.94;4962031;28;20066;-61
2021/12/07 01:06:20;;;;;;;7.25;4.20;;;;;;;0.79;98.26;96144.59;4961266;28;20045;-57
2021/12/07 01:09:36;;;;;;;9.48;4.55;;;;;;;0.69;100.00;96151.88;4962166;28;20045;-61
2021/12/07 01:25:27;;;;;;;7.60;4.25;;;;;;;0.39;100.00;96169.72;4937668;28;20062;-61
2021/12/07 01:27:55;;;;;;;6.45;4.50;;;;;;;0.33;100.00;96154.84;4951788;28;20404;-58
2021/12/07 01:30:35;;;;;;;6.72;3.97;;;;;;;0.43;100.00;96159.13;4956331;28;20043;-59
2021/12/07 01:36:06;;;;;;;6.50;4.30;;;;;;;0.21;100.00;96168.09;4965626;28;20043;-58
2021/12/07 01:39:28;;;;;;;9.52;5.53;;;;;;;0.05;100.00;96173.91;4963741;28;20047;-59
2021/12/07 02:00:13;;;;;;;8.70;5.60;;;;;;;-0.02;100.00;96160.91;4959605;28;20454;-61
2021/12/07 02:02:40;;;;;;;9.85;5.68;;;;;;;-0.12;100.00;96171.94;4962722;28;20071;-60
2021/12/07 02:05:07;;;;;;;10.45;5.32;;;;;;;-0.06;100.00;96165.31;4959445;28;20042;-59
2021/12/07 02:07:32;;;;;;;7.80;5.70;;;;;;;-0.05;100.00;96175.00;4965265;28;20054;-61
2021/12/07 02:10:04;;;;;;;8.57;5.07;;;;;;;-0.05;100.00;96166.91;4965110;28;20050;-61
2021/12/07 02:12:41;;;;;;;9.45;4.93;;;;;;;0.02;100.00;96166.47;4964348;28;20122;-61
2021/12/07 02:15:06;;;;;;;6.90;4.95;;;;;;;-0.09;100.00;96186.69;4960392;28;20042;-62
2021/12/07 02:17:33;;;;;;;10.30;5.38;;;;;;;0.01;100.00;96185.63;4974551;28;20571;-61
2021/12/07 02:19:59;;;;;;;8.25;5.10;;;;;;;-0.01;100.00;96189.41;4949917;28;20035;-61
2021/12/07 02:22:24;;;;;;;7.15;4.88;;;;;;;0.11;100.00;96188.03;4956287;28;20050;-61
2021/12/07 02:24:51;;;;;;;7.15;4.65;;;;;;;0.18;100.00;96191.88;4964585;28;20039;-63
2021/12/07 02:27:16;;;;;;;7.30;4.35;;;;;;;0.27;100.00;96194.59;4956837;28;20043;-60
2021/12/07 02:29:42;;;;;;;6.97;4.43;;;;;;;0.21;100.00;96193.13;4961043;28;20038;-59
2021/12/07 02:32:07;;;;;;;5.55;4.05;;;;;;;0.12;100.00;96203.09;4953188;28;20085;-64
2021/12/07 02:34:35;;;;;;;7.20;4.28;;;;;;;0.16;100.00;96198.66;4955259;28;20046;-60
2021/12/07 02:37:01;;;;;;;5.82;3.80;;;;;;;-0.03;100.00;96202.41;4955245;28;20395;-61
2021/12/07 02:39:36;;;;;;;6.80;4.22;;;;;;;-0.10;100.00;96207.44;4951982;28;20054;-61
2021/12/07 02:42:04;;;;;;;7.45;3.97;;;;;;;-0.10;100.00;96214.72;4958400;28;20074;-61
2021/12/07 02:44:31;;;;;;;7.28;4.63;;;;;;;-0.02;100.00;96214.75;4955977;28;20519;-59
2021/12/07 02:46:56;;;;;;;6.63;4.22;;;;;;;-0.01;100.00;96213.63;4974808;28;20472;-61
2021/12/07 02:49:22;;;;;;;6.45;4.10;;;;;;;0.10;100.00;96216.06;4951629;28;20066;-61
2021/12/07 02:51:47;;;;;;;5.78;3.88;;;;;;;0.14;100.00;96219.72;4962696;28;20034;-62
2021/12/07 02:54:13;;;;;;;5.75;3.83;;;;;;;0.19;100.00;96223.06;4958355;28;20115;-64
2021/12/07 02:56:39;;;;;;;5.72;4.15;;;;;;;0.32;100.00;96226.75;4952282;28;20078;-58
2021/12/07 02:59:04;;;;;;;5.88;4.22;;;;;;;0.31;100.00;96229.78;4948387;28;20412;-62
2021/12/07 03:01:34;;;;;;;6.20;3.33;;;;;;;0.29;100.00;96230.09;4953250;28;20395;-62
2021/12/07 03:09:41;;;;;;;4.30;3.28;;;;;;;0.42;100.00;96214.13;4957546;28;20094;-59
2021/12/07 03:28:06;;;;;;;4.38;3.38;;;;;;;0.42;100.00;96231.09;4956607;28;20045;-61
2021/12/07 03:30:31;;;;;;;5.75;3.15;;;;;;;0.38;100.00;96224.75;4954098;28;20627;-61
2021/12/07 03:32:57;;;;;;;4.53;3.20;;;;;;;0.36;100.00;96240.41;4957965;28;20130;-60
2021/12/07 03:35:22;;;;;;;4.47;3.30;;;;;;;0.43;100.00;96243.44;4946648;28;20051;-61
2021/12/07 03:37:48;;;;;;;4.80;3.45;;;;;;;0.45;100.00;96243.94;4952695;28;20038;-58
2021/12/07 03:40:15;;;;;;;4.53;3.33;;;;;;;0.40;100.00;96238.69;4955648;28;20046;-61
2021/12/07 03:42:41;;;;;;;5.90;3.20;;;;;;;0.46;100.00;96245.50;4957475;28;20130;-60
2021/12/07 03:45:09;;;;;;;5.00;3.58;;;;;;;0.60;100.00;96236.53;4950597;28;20075;-61
2021/12/07 03:47:34;;;;;;;4.95;3.20;;;;;;;0.49;100.00;96239.50;4967068;28;20047;-62
2021/12/07 03:50:00;;;;;;;3.80;2.60;;;;;;;0.49;100.00;96255.69;4956510;28;20050;-59
2021/12/07 03:52:26;;;;;;;4.00;3.08;;;;;;;0.55;100.00;96250.94;4952220;28;20575;-62
2021/12/07 03:54:51;;;;;;;4.55;3.10;;;;;;;0.60;100.00;96252.69;4957909;28;20267;-62
2021/12/07 03:57:16;;;;;;;4.63;3.17;;;;;;;0.57;100.00;96254.88;4948848;28;20129;-60
2021/12/07 03:59:42;;;;;;;5.43;2.90;;;;;;;0.60;100.00;96247.31;4955458;28;20049;-60
2021/12/07 04:02:08;;;;;;;4.35;3.22;;;;;;;0.69;100.00;96246.22;4958576;28;20571;-61
2021/12/07 04:04:35;;;;;;;3.92;2.75;;;;;;;0.66;100.00;96252.22;4964003;28;20125;-59
2021/12/07 04:07:00;;;;;;;4.68;2.72;;;;;;;0.70;100.00;96263.16;4962593;28;20117;-61
2021/12/07 04:09:26;;;;;;;3.88;2.60;;;;;;;0.68;100.00;96262.69;4956651;28;21025;-58
2021/12/07 04:11:51;;;;;;;3.92;2.55;;;;;;;0.75;100.00;96258.44;4957249;28;20046;-58
2021/12/07 04:14:17;;;;;;;3.58;2.67;;;;;;;0.76;100.00;96264.63;4953427;28;20038;-61
2021/12/07 04:16:42;;;;;;;4.22;2.72;;;;;;;0.74;100.00;96256.06;4955493;28;20105;-61
2021/12/07 04:19:08;;;;;;;3.95;2.67;;;;;;;0.70;100.00;96264.00;4956140;28;20090;-62
2021/12/07 04:21:34;;;;;;;4.60;3.10;;;;;;;0.69;100.00;96265.09;4959641;28;20049;-62
2021/12/07 04:23:59;;;;;;;4.47;2.97;;;;;;;0.78;100.00;96256.22;4963404;28;20466;-61
2021/12/07 04:26:25;;;;;;;3.90;2.72;;;;;;;0.75;100.00;96269.22;4955887;28;20039;-60
2021/12/07 04:28:51;;;;;;;4.88;2.92;;;;;;;0.76;100.00;96273.50;4956140;28;20070;-60
2021/12/07 04:31:17;;;;;;;4.47;2.75;;;;;;;0.83;100.00;96264.97;4947396;28;20042;-61
2021/12/07 04:33:43;;;;;;;4.45;3.10;;;;;;;0.72;100.00;96277.94;4962506;28;20063;-61
2021/12/07 04:36:10;;;;;;;3.50;2.70;;;;;;;0.75;100.00;96290.78;4955188;28;20051;-60
2021/12/07 04:38:36;;;;;;;5.28;2.90;;;;;;;0.78;100.00;96278.59;4958854;28;20052;-59
2021/12/07 04:41:01;;;;;;;5.10;2.78;;;;;;;0.77;100.00;96282.38;4961867;28;20043;-57
2021/12/07 04:43:27;;;;;;;4.35;2.92;;;;;;;0.73;100.00;96289.50;4957817;28;20518;-61
2021/12/07 04:59:17;;;;;;;3.78;2.65;;;;;;;0.82;100.00;96289.53;4935432;28;20047;-60
2021/12/07 05:01:44;;;;;;;3.88;2.70;;;;;;;0.81;100.00;96286.06;4956635;28;20439;-62
2021/12/07 05:04:18;;;;;;;4.25;2.80;;;;;;;0.81;100.00;96283.34;4957178;28;20105;-62
2021/12/07 05:06:53;;;;;;;4.57;2.55;;;;;;;0.87;100.00;96292.09;4961297;28;20054;-62
2021/12/07 05:12:19;;;;;;;3.85;2.80;;;;;;;0.96;100.00;96303.69;4934858;28;20411;-62
2021/12/07 05:14:45;;;;;;;3.30;2.80;;;;;;;0.95;100.00;96299.41;4959482;28;20101;-61
2021/12/07 05:38:49;;;;;;;5.20;3.55;;;;;;;0.87;100.00;96351.41;4968549;28;20060;-62
2021/12/07 05:41:15;;;;;;;5.68;4.05;;;;;;;0.79;100.00;96339.47;4963205;28;20070;-59
2021/12/07 05:43:40;;;;;;;5.68;3.80;;;;;;;0.76;100.00;96348.19;4965652;28;20102;-59
2021/12/07 05:46:06;;;;;;;8.40;4.85;;;;;;;0.72;100.00;96339.13;4957051;28;20047;-61
2021/12/07 05:48:32;;;;;;;5.70;4.20;;;;;;;0.81;100.00;96337.28;4966054;28;20492;-60
2021/12/07 05:50:58;;;;;;;5.82;4.60;;;;;;;0.83;100.00;96337.75;4968232;28;20046;-58
2021/12/07 05:53:24;;;;;;;8.43;5.50;;;;;;;0.80;100.00;96334.91;4954840;28;20050;-60
2021/12/07 05:55:49;;;;;;;9.20;5.15;;;;;;;0.82;100.00;96340.75;4968094;28;20046;-58
2021/12/07 05:58:15;;;;;;;7.85;4.85;;;;;;;0.79;100.00;96344.84;4955203;28;20050;-62
2021/12/07 06:00:44;;;;;;;6.43;4.50;;;;;;;0.88;100.00;96351.09;4961534;28;20050;-58
2021/12/07 06:03:10;;;;;;;5.80;4.05;;;;;;;0.93;100.00;96347.44;4961607;28;20117;-58
2021/12/07 06:05:37;;;;;;;9.05;4.20;;;;;;;0.90;100.00;96354.28;4965987;28;20046;-60
2021/12/07 06:08:04;;;;;;;5.45;3.70;;;;;;;0.91;100.00;96350.47;4965565;28;20476;-60
2021/12/07 06:10:29;;;;;;;5.18;4.05;;;;;;;0.84;100.00;96349.34;4967119;28;20042;-61
2021/12/07 06:12:55;;;;;;;5.43;3.80;;;;;;;0.95;100.00;96350.63;4966491;28;20046;-61
2021/12/07 06:15:22;;;;;;;5.75;4.45;;;;;;;0.88;100.00;96358.38;4958262;28;20069;-61
2021/12/07 06:17:50;;;;;;;6.80;4.82;;;;;;;0.92;100.00;96359.38;4961579;28;20121;-56
2021/12/07 06:20:17;;;;;;;8.93;4.88;;;;;;;0.98;100.00;96362.72;4957171;28;20505;-60
2021/12/07 06:22:42;;;;;;;7.03;4.88;;;;;;;1.02;100.00;96361.75;4966446;28;20046;-59
2021/12/07 06:25:08;;;;;;;7.75;4.55;;;;;;;0.98;100.00;96376.97;4954151;28;20462;-58
2021/12/07 06:27:34;;;;;;;6.10;3.97;;;;;;;1.16;100.00;96364.34;4963243;28;20133;-61
2021/12/07 06:29:59;;;;;;;8.80;4.35;;;;;;;1.13;100.00;96368.47;4956695;28;20049;-61
2021/12/07 06:32:25;;;;;;;6.50;4.28;;;;;;;1.17;100.00;96374.03;4962195;28;20770;-60
2021/12/07 06:34:51;;;;;;;7.03;5.13;;;;;;;1.11;100.00;96381.44;4967825;28;20046;-61
2021/12/07 06:37:18;;;;;;;8.18;4.97;;;;;;;0.91;100.00;96388.22;4961612;28;20506;-60
2021/12/07 06:39:44;;;;;;;11.05;6.22;;;;;;;0.84;100.00;96389.78;4971220;28;20089;-61
2021/12/07 06:42:11;;;;;;;10.43;5.28;;;;;;;0.81;100.00;96390.38;4958247;28;20369;-60
2021/12/07 06:44:36;;;;;;;9.05;4.97;;;;;;;0.87;100.00;96402.63;4960876;28;20101;-62
2021/12/07 06:47:02;;;;;;;6.10;4.63;;;;;;;0.83;100.00;96391.69;4960807;28;20034;-62
2021/12/07 06:49:27;;;;;;;7.15;4.10;;;;;;;0.84;100.00;96392.47;4959379;28;20093;-60
2021/12/07 06:51:53;;;;;;;9.68;5.18;;;;;;;0.79;100.00;96390.69;4961747;28;20392;-59
2021/12/07 06:54:19;;;;;;;6.80;4.32;;;;;;;0.84;100.00;96395.16;4952025;28;20535;-61
2021/12/07 06:56:44;;;;;;;6.00;4.15;;;;;;;0.78;100.00;96397.22;4964149;28;20511;-61
2021/12/07 06:59:10;;;;;;;6.47;4.07;;;;;;;0.82;100.00;96400.88;4957279;28;20035;-60
2021/12/07 07:01:36;;;;;;;8.20;4.30;;;;;;;0.82;100.00;96405.47;4957993;28;20545;-59
2021/12/07 07:04:02;;;;;;;5.13;4.07;;;;;;;0.93;100.00;96404.88;4951321;28;20046;-58
2021/12/07 07:06:28;;;;;;;12.25;4.43;;;;;;;0.93;100.00;96404.88;4959755;28;20038;-62
2021/12/07 07:08:53;;;;;;;6.25;4.20;;;;;;;1.01;100.00;96413.31;4964247;28;20070;-58
2021/12/07 07:11:19;;;;;;;7.28;4.07;;;;;;;1.00;100.00;96420.59;4961405;28;20046;-61
2021/12/07 07:13:46;;;;;;;7.90;4.82;;;;;;;1.01;100.00;96424.91;4960377;28;20043;-61
2021/12/07 07:16:11;;;;;;;7.53;4.18;;;;;;;1.14;100.00;96428.59;4955522;28;20388;-61
2021/12/07 07:18:37;;;;;;;6.75;4.40;;;;;;;1.00;100.00;96420.59;4965234;28;20043;-62
2021/12/07 07:21:03;;;;;;;9.88;4.88;;;;;;;0.98;100.00;96420.13;4960565;28;20034;-62
2021/12/07 07:23:29;;;;;;;6.03;4.22;;;;;;;1.02;100.00;96431.09;4956648;28;20050;-59
2021/12/07 07:25:55;;;;;;;7.28;4.13;;;;;;;1.10;100.00;96436.53;4963658;28;20043;-61
2021/12/07 07:28:26;;;;;;;9.00;4.20;;;;;;;1.19;100.00;96441.13;4957282;28;20532;-62
2021/12/07 07:30:52;;;;;;;6.00;3.80;;;;;;;1.28;100.00;96442.78;4964671;23;20058;-63
2021/12/07 07:33:17;;;;;;;11.90;8.35;;;;;;;1.30;100.00;96453.25;4936130;28;20051;-66
2021/12/07 07:35:43;;;;;;;8.88;6.45;;;;;;;1.34;100.00;96448.81;4926529;28;20047;-63
2021/12/07 07:38:09;;;;;;;6.93;5.20;;;;;;;1.56;100.00;96442.53;4937136;28;20050;-63
2021/12/07 07:40:34;;;;;;;7.63;4.63;;;;;;;1.82;100.00;96444.47;4943771;28;20570;-62
2021/12/07 07:43:00;;;;;;;6.22;4.38;;;;;;;1.89;100.00;96444.78;4932571;28;20110;-64
2021/12/07 07:45:25;;;;;;;9.68;4.38;;;;;;;1.92;100.00;96436.06;4934080;28;20063;-61
2021/12/07 07:47:51;;;;;;;6.43;4.32;;;;;;;1.87;100.00;96450.53;4943948;28;20416;-61
2021/12/07 07:50:17;;;;;;;7.05;5.32;;;;;;;1.89;100.00;96456.41;4921016;28;20058;-65
2021/12/07 07:52:43;;;;;;;6.78;4.03;;;;;;;1.90;100.00;96451.78;4939596;28;20031;-64
2021/12/07 07:55:10;;;;;;;7.15;4.07;;;;;;;1.90;100.00;96455.28;4939688;28;20126;-63
2021/12/07 07:57:36;;;;;;;8.60;3.65;;;;;;;2.01;100.00;96454.97;4943680;28;20039;-64
2021/12/07 08:00:03;;;;;;;6.35;3.67;;;;;;;1.99;100.00;96451.81;4939674;28;20043;-62
2021/12/07 08:02:29;;;;;;;6.47;4.15;;;;;;;1.96;100.00;96461.31;4937178;28;20492;-64
2021/12/07 08:04:54;;;;;;;5.22;3.70;;;;;;;1.98;100.00;96461.00;4935562;28;20044;-64
2021/12/07 08:07:20;;;;;;;7.15;4.05;;;;;;;2.06;100.00;96460.22;4920283;29;20040;-64
2021/12/07 08:09:45;;;;;;;7.63;4.00;;;;;;;1.84;100.00;96456.56;4938636;28;20425;-63
2021/12/07 08:12:11;;;;;;;5.60;4.00;;;;;;;1.96;100.00;96455.91;4929148;28;20047;-63
2021/12/07 08:14:36;;;;;;;7.18;3.20;;;;;;;2.11;100.00;96460.09;4936297;28;20051;-64
2021/12/07 08:17:03;;;;;;;7.20;3.22;;;;;;;2.23;100.00;96459.44;4941458;28;20050;-61
2021/12/07 08:19:29;;;;;;;7.78;3.20;;;;;;;2.48;100.00;96444.31;4940221;28;20114;-63
2021/12/07 08:21:54;;;;;;;4.75;2.88;;;;;;;2.81;100.00;96444.56;4944893;28;20047;-65
2021/12/07 08:24:19;;;;;;;8.02;3.10;;;;;;;3.26;99.38;96443.31;4944794;28;20043;-65
2021/12/07 08:26:45;;;;;;;4.57;2.78;;;;;;;2.97;100.00;96438.63;4948292;28;20134;-66
2021/12/07 08:29:10;;;;;;;3.83;2.30;;;;;;;3.05;100.00;96451.34;4923293;28;21753;-64
2021/12/07 08:31:36;;;;;;;4.82;2.75;;;;;;;3.04;100.00;96445.16;4942246;28;20047;-66
2021/12/07 08:34:02;;;;;;;6.55;3.35;;;;;;;3.29;100.00;96448.06;4940543;28;20109;-63
2021/12/07 08:36:28;;;;;;;3.88;2.60;;;;;;;3.78;94.17;96453.06;4940433;28;20183;-64
2021/12/07 08:38:55;;;;;;;5.00;2.70;;;;;;;3.93;95.05;96455.19;4940859;28;20496;-62
2021/12/07 08:41:20;;;;;;;6.00;2.42;;;;;;;4.20;92.69;96455.81;4934304;28;20054;-63
2021/12/07 08:43:46;;;;;;;6.93;2.38;;;;;;;3.78;90.07;96462.00;4941044;28;20047;-65
2021/12/07 08:46:13;;;;;;;8.40;3.42;;;;;;;3.11;95.04;96468.97;4937864;28;20031;-63
2021/12/07 08:48:39;;;;;;;8.73;2.88;;;;;;;2.89;96.64;96463.81;4942027;28;20043;-63
2021/12/07 08:51:06;;;;;;;7.20;4.00;;;;;;;2.55;99.01;96471.66;4937087;28;20073;-60
2021/12/07 08:53:35;;;;;;;3.33;2.38;;;;;;;2.51;99.07;96476.13;4943529;28;20125;-65
2021/12/07 09:01:32;;;;;;;5.65;2.95;;;;;;;2.41;98.81;96473.72;4941508;28;20377;-63
2021/12/07 09:03:59;;;;;;;2.33;2.08;;;;;;;2.32;99.92;96471.03;4944549;29;20059;-63
2021/12/07 09:06:26;;;;;;;6.55;3.05;;;;;;;2.24;100.00;96479.94;4938763;28;20464;-65
2021/12/07 09:08:52;;;;;;;6.40;3.17;;;;;;;2.13;100.00;96479.47;4946858;28;20507;-62
2021/12/07 09:11:18;;;;;;;4.68;2.97;;;;;;;2.13;100.00;96474.06;4936999;28;20043;-63
2021/12/07 09:13:44;;;;;;;16.27;5.25;;;;;;;2.24;100.00;96471.84;4946494;28;20089;-64
2021/12/07 09:16:13;;;;;;;7.05;3.83;;;;;;;2.46;98.97;96479.78;4937110;28;20055;-64
2021/12/07 09:18:38;;;;;;;8.10;2.83;;;;;;;2.42;99.87;96472.63;4943376;28;20400;-65
2021/12/07 09:21:05;;;;;;;4.85;2.85;;;;;;;2.56;99.42;96484.06;4939726;28;20043;-61
2021/12/07 09:23:30;;;;;;;6.10;2.80;;;;;;;3.00;98.42;96490.19;4943162;28;20047;-62
2021/12/07 09:25:56;;;;;;;8.35;4.53;;;;;;;3.41;94.63;96496.13;4943762;28;20488;-64
2021/12/07 09:28:21;;;;;;;4.57;2.40;;;;;;;3.80;92.50;96494.19;4934899;28;20058;-66
2021/12/07 09:30:51;;;;;;;5.10;2.83;;;;;;;4.44;88.60;96484.94;4943209;28;20050;-66
2021/12/07 09:33:26;;;;;;;5.47;2.97;;;;;;;4.45;87.10;96494.69;4940188;28;20126;-66
2021/12/07 09:35:52;;;;;;;3.28;2.20;;;;;;;5.00;86.83;96500.09;4943336;28;20150;-64
2021/12/07 09:38:18;;;;;;;5.63;2.08;;;;;;;4.86;83.88;96508.50;4939769;28;20074;-66
2021/12/07 09:40:45;;;;;;;6.00;1.90;;;;;;;5.12;82.65;96497.41;4943176;28;20079;-66
2021/12/07 09:43:12;;;;;;;3.88;1.92;;;;;;;4.67;84.55;96500.88;4937076;28;20077;-65
2021/12/07 09:45:38;;;;;;;3.92;1.83;;;;;;;5.14;81.08;96504.06;4951902;28;20047;-64
2021/12/07 09:48:06;;;;;;;8.40;2.13;;;;;;;5.12;81.35;96500.13;4949427;28;20074;-62
2021/12/07 09:50:34;;;;;;;3.88;1.95;;;;;;;5.41;81.35;96499.16;4947050;28;20542;-64
2021/12/07 09:53:02;;;;;;;5.80;2.40;;;;;;;4.91;81.85;96503.66;4944712;28;20051;-64
2021/12/07 09:55:29;;;;;;;2.92;1.88;;;;;;;4.78;80.55;96488.50;4959993;28;20491;-65
2021/12/07 09:57:55;;;;;;;3.22;1.75;;;;;;;4.29;84.13;96499.91;4947699;28;20529;-66
2021/12/07 10:00:22;;;;;;;6.15;2.30;;;;;;;3.89;86.78;96510.38;4941859;28;20047;-64
2021/12/07 10:02:50;;;;;;;8.25;2.35;;;;;;;3.80;86.77;96510.44;4948264;28;20360;-64
2021/12/07 10:05:19;;;;;;;5.57;1.85;;;;;;;3.51;87.86;96509.28;4941336;28;20092;-63
2021/12/07 10:07:46;;;;;;;4.95;2.55;;;;;;;3.20;89.86;96498.72;4947182;28;20039;-65
2021/12/07 10:10:22;;;;;;;4.35;1.90;;;;;;;3.32;88.58;96496.13;4934355;28;20039;-64
2021/12/07 10:12:48;;;;;;;4.68;2.25;;;;;;;3.34;89.31;96498.53;4950788;28;20102;-63
2021/12/07 10:15:14;;;;;;;4.55;2.15;;;;;;;3.51;89.99;96509.28;4952865;28;20075;-64
2021/12/07 10:17:42;;;;;;;5.38;2.65;;;;;;;3.83;88.96;96507.88;4946853;28;20043;-65
2021/12/07 10:20:37;;;;;;;7.55;2.30;;;;;;;4.29;85.45;96493.69;4943173;28;20043;-64
2021/12/07 10:23:19;;;;;;;7.72;2.53;;;;;;;4.25;83.94;96488.16;4959906;28;20035;-62
2021/12/07 10:26:04;;;;;;;6.32;2.80;;;;;;;4.36;83.55;96483.91;4962017;28;20499;-65
2021/12/07 10:28:35;;;;;;;5.50;2.53;;;;;;;4.84;81.67;96487.13;4948072;28;20047;-62
2021/12/07 10:31:23;;;;;;;4.85;2.17;;;;;;;5.00;80.64;96475.66;4946934;28;20043;-64
2021/12/07 10:33:59;;;;;;;7.03;2.03;;;;;;;4.78;81.17;96480.34;4951218;28;20094;-63
2021/12/07 10:36:32;;;;;;;4.88;1.98;;;;;;;4.67;80.29;96471.03;4953383;28;20051;-64
2021/12/07 10:38:59;;;;;;;4.00;1.88;;;;;;;4.74;79.69;96469.38;4959033;28;20118;-64
2021/12/07 10:41:26;;;;;;;5.25;2.05;;;;;;;5.01;78.94;96467.19;4930887;28;20058;-64
2021/12/07 10:43:52;;;;;;;4.60;1.85;;;;;;;5.27;78.50;96471.53;4948058;28;20047;-65
2021/12/07 10:46:45;;;;;;;5.10;1.98;;;;;;;5.65;76.87;96481.28;4941597;28;20146;-65
2021/12/07 10:49:10;;;;;;;6.93;2.20;;;;;;;5.23;79.28;96473.34;4940929;28;20043;-64
2021/12/07 10:51:56;;;;;;;5.60;2.40;;;;;;;4.88;80.56;96479.13;4947133;28;20046;-65
2021/12/07 10:54:23;;;;;;;2.38;1.58;;;;;;;4.90;79.57;96474.97;4940923;28;20613;-67
2021/12/07 10:56:50;;;;;;;3.90;1.48;;;;;;;4.99;80.09;96469.44;4945987;28;20074;-64
2021/12/07 10:59:16;;;;;;;5.50;2.00;;;;;;;4.72;80.82;96463.50;4939671;28;20389;-65
2021/12/07 11:01:45;;;;;;;6.05;1.80;;;;;;;4.93;79.37;96466.16;4944029;28;20090;-63
2021/12/07 11:04:33;;;;;;;4.97;2.00;;;;;;;5.26;80.02;96464.53;4942806;28;20062;-61
2021/12/07 11:07:17;;;;;;;4.22;1.70;;;;;;;5.36;77.38;96453.97;4952946;28;20047;-65
2021/12/07 11:09:49;;;;;;;3.08;1.67;;;;;;;5.30;76.25;96451.84;4954423;28;20504;-62
2021/12/07 11:12:17;;;;;;;5.35;1.65;;;;;;;5.70;75.78;96448.44;4949682;28;20047;-65
2021/12/07 11:14:50;;;;;;;5.10;2.05;;;;;;;5.53;74.47;96438.63;4953286;28;20046;-63
2021/12/07 11:17:23;;;;;;;6.35;1.90;;;;;;;5.73;74.37;96434.97;4944910;28;20039;-64
2021/12/07 11:19:49;;;;;;;5.95;1.70;;;;;;;6.09;73.05;96449.69;4959381;28;20043;-62
2021/12/07 11:22:17;;;;;;;12.35;3.88;;;;;;;5.70;73.65;96440.31;4956837;28;20101;-64
2021/12/07 11:24:44;;;;;;;3.30;1.50;;;;;;;5.91;72.55;96435.53;4955580;28;20177;-65
2021/12/07 11:30:13;;;;;;;3.42;1.38;;;;;;;6.14;72.90;96426.91;4953244;28;20110;-65
2021/12/07 11:32:44;;;;;;;4.00;1.50;;;;;;;6.18;70.67;96410.69;4951371;28;20058;-65
2021/12/07 11:35:16;;;;;;;4.90;1.35;;;;;;;6.21;71.35;96420.84;4958342;28;20050;-61
2021/12/07 11:37:44;;;;;;;2.30;1.30;;;;;;;6.24;72.00;96425.63;4950162;28;21744;-64
2021/12/07 11:40:10;;;;;;;4.18;1.60;;;;;;;6.54;70.64;96419.84;4949347;28;20035;-64
2021/12/07 11:42:39;;;;;;;4.70;1.85;;;;;;;6.59;69.59;96406.78;4956226;28;20051;-63
2021/12/07 11:45:17;;;;;;;4.97;1.60;;;;;;;6.60;69.76;96397.47;4948203;28;20393;-59
2021/12/07 11:47:45;;;;;;;5.10;1.40;;;;;;;6.58;69.28;96390.81;4952406;28;20504;-65
2021/12/07 11:50:50;;;;;;;4.55;1.23;;;;;;;6.67;68.07;96388.72;4948462;28;20074;-64
2021/12/07 11:53:21;;;;;;;1.55;0.98;;;;;;;6.72;67.36;96393.91;4944115;28;20034;-64
2021/12/07 11:55:50;;;;;;;7.20;2.65;;;;;;;6.98;66.32;96385.22;4952326;28;20387;-63
2021/12/07 11:58:17;;;;;;;3.53;1.70;;;;;;;6.23;67.49;96392.19;4945869;28;20035;-65
2021/12/07 12:00:57;;;;;;;6.55;1.77;;;;;;;7.07;66.38;96391.28;4955096;28;20042;-64
2021/12/07 12:03:23;;;;;;;;;;;;;;;7.63;63.63;96381.31;4949933;28;20712;-64
2021/12/07 12:05:50;;;;;;;5.90;1.30;;;;;;;7.58;61.44;96384.28;4948846;28;19922;-63
2021/12/07 12:08:19;;;;;;;2.85;1.10;;;;;;;6.30;66.47;96367.91;4937559;28;20043;-66
2021/12/07 12:10:53;;;;;;;4.23;1.17;;;;;;;5.62;68.25;96367.84;4952051;28;20039;-62
2021/12/07 12:13:50;;;;;;;3.08;1.40;;;;;;;5.42;69.80;96378.53;4951188;28;20287;-62
2021/12/07 12:16:28;;;;;;;4.60;1.70;;;;;;;5.29;71.20;96366.06;4942538;28;20164;-62
2021/12/07 12:19:21;;;;;;;6.75;1.42;;;;;;;5.59;70.21;96349.53;4952462;28;20050;-64
2021/12/07 12:21:53;;;;;;;4.15;1.60;;;;;;;6.31;66.86;96353.16;4952011;28;20391;-64
2021/12/07 12:25:06;;;;;;;4.10;1.63;;;;;;;6.56;65.98;96355.78;4941664;28;20083;-63
2021/12/07 12:27:34;;;;;;;6.30;1.42;;;;;;;6.60;66.97;96336.81;4937040;28;20485;-64
2021/12/07 12:30:04;;;;;;;3.53;1.70;;;;;;;6.30;67.66;96335.28;4950614;28;20430;-65
2021/12/07 12:32:45;;;;;;;6.45;1.40;;;;;;;6.96;65.10;96338.50;4948776;28;20050;-65
2021/12/07 12:35:12;;;;;;;6.80;1.30;;;;;;;7.24;64.66;96332.16;4950891;28;20046;-64
2021/12/07 12:37:44;;;;;;;13.20;1.70;;;;;;;7.81;62.78;96327.16;4949274;28;20047;-64
2021/12/07 12:40:17;;;;;;;4.05;1.13;;;;;;;6.87;63.85;96327.78;4944700;28;20085;-63
2021/12/07 12:42:45;;;;;;;3.80;1.60;;;;;;;6.30;66.64;96321.69;4954763;28;20057;-63
2021/12/07 12:45:38;;;;;;;2.88;1.40;;;;;;;5.89;68.27;96307.31;4944523;28;20151;-62
2021/12/07 12:48:07;;;;;;;8.57;1.60;;;;;;;6.17;66.95;96306.53;4946924;28;20129;-62
2021/12/07 12:50:46;;;;;;;8.35;2.08;;;;;;;6.91;64.88;96302.56;4953258;28;20083;-63
2021/12/07 12:53:19;;;;;;;5.82;1.52;;;;;;;7.65;62.97;96295.31;4946993;28;20125;-63
2021/12/07 12:55:44;;;;;;;8.82;1.60;;;;;;;7.61;60.99;96288.97;4953296;28;20047;-66
2021/12/07 12:58:17;;;;;;;7.18;1.52;;;;;;;7.02;63.68;96284.56;4944030;28;20122;-65
2021/12/07 13:01:10;;;;;;;2.88;1.60;;;;;;;7.05;64.13;96278.41;4942105;28;20408;-64
2021/12/07 13:03:48;;;;;;;4.93;1.40;;;;;;;7.62;62.80;96278.91;4929392;28;20047;-66
2021/12/07 13:06:41;;;;;;;4.68;1.55;;;;;;;8.13;59.26;96267.81;4938854;28;20043;-64
2021/12/07 13:09:21;;;;;;;13.25;2.92;;;;;;;7.55;61.80;96262.38;4938670;28;20051;-67
2021/12/07 13:12:00;;;;;;;3.97;1.60;;;;;;;7.58;62.67;96250.75;4946177;28;20126;-66
2021/12/07 13:14:26;;;;;;;5.25;2.22;;;;;;;7.80;61.19;96243.81;4937903;28;20111;-68
2021/12/07 13:16:53;;;;;;;6.38;1.30;;;;;;;7.28;62.15;96233.03;4944063;28;20059;-65
2021/12/07 13:19:20;;;;;;;4.97;1.70;;;;;;;7.03;62.16;96237.91;4937031;28;20098;-66
2021/12/07 13:21:47;;;;;;;7.78;1.80;;;;;;;7.58;60.44;96229.75;4934110;28;20052;-64
2021/12/07 13:24:29;;;;;;;12.20;2.83;;;;;;;8.30;58.67;96227.56;4940735;29;20039;-66
2021/12/07 13:26:55;;;;;;;6.38;2.40;;;;;;;8.40;57.90;96233.22;4937797;29;20084;-66
2021/12/07 13:29:26;;;;;;;10.77;1.50;;;;;;;8.30;58.11;96227.56;4925788;28;20186;-66